createdAt,value
2023-05-23T00:00:02.298Z,15.15
2023-05-23T00:03:01.187Z,14.60
2023-05-23T00:05:29.734Z,17.02
2023-05-23T00:07:58.498Z,15.15
2023-05-23T00:10:27.077Z,15.63
2023-05-23T00:12:58.481Z,16.35
2023-05-23T00:15:27.071Z,14.95
2023-05-23T00:17:55.868Z,15.48
2023-05-23T00:20:25.256Z,18.50
2023-05-23T00:22:55.004Z,21.10
2023-05-23T00:25:23.516Z,18.90
2023-05-23T00:27:52.308Z,14.73
2023-05-23T00:30:20.770Z,16.73
2023-05-23T00:32:49.557Z,14.20
2023-05-23T00:35:18.425Z,19.63
2023-05-23T00:37:50.702Z,15.63
2023-05-23T00:40:19.483Z,15.38
2023-05-23T00:42:48.762Z,14.52
2023-05-23T00:45:17.362Z,14.75
2023-05-23T00:47:47.355Z,18.63
2023-05-23T00:50:16.691Z,15.98
2023-05-23T00:52:45.997Z,13.65
2023-05-23T00:55:14.762Z,15.43
2023-05-23T00:57:44.954Z,18.77
2023-05-23T01:00:14.361Z,15.43
2023-05-23T01:02:48.242Z,17.35
2023-05-23T01:07:52.428Z,15.10
2023-05-23T01:10:24.585Z,15.07
2023-05-23T01:13:39.618Z,17.25
2023-05-23T01:16:13.751Z,17.52
2023-05-23T01:19:03.040Z,18.70
2023-05-23T01:21:32.120Z,14.70
2023-05-23T01:24:36.734Z,14.52
2023-05-23T01:27:41.766Z,22.75
2023-05-23T01:30:11.171Z,18.48
2023-05-23T01:32:40.534Z,14.05
2023-05-23T01:35:09.736Z,19.55
2023-05-23T01:37:38.191Z,18.50
2023-05-23T01:40:08.070Z,16.63
2023-05-23T01:42:38.221Z,15.43
2023-05-23T01:45:07.892Z,19.38
2023-05-23T01:47:36.364Z,20.23
2023-05-23T01:50:06.801Z,16.40
2023-05-23T01:52:35.720Z,15.23
2023-05-23T01:55:10.013Z,16.92
2023-05-23T01:57:39.982Z,19.77
2023-05-23T02:00:12.460Z,23.25
2023-05-23T02:02:43.498Z,26.70
2023-05-23T02:05:12.726Z,22.85
2023-05-23T02:07:41.230Z,33.63
2023-05-23T02:10:10.298Z,21.75
2023-05-23T02:12:39.839Z,23.35
2023-05-23T02:15:09.471Z,27.38
2023-05-23T02:17:39.270Z,19.20
2023-05-23T02:20:08.985Z,22.63
2023-05-23T02:22:37.567Z,37.17
2023-05-23T02:25:07.486Z,29.00
2023-05-23T02:27:36.045Z,24.15
2023-05-23T02:30:05.370Z,25.77
2023-05-23T02:32:33.953Z,26.05
2023-05-23T02:35:03.351Z,28.85
2023-05-23T02:37:31.846Z,23.15
2023-05-23T02:40:00.618Z,22.75
2023-05-23T02:42:29.064Z,28.50
2023-05-23T02:44:57.982Z,23.85
2023-05-23T02:47:26.435Z,22.73
2023-05-23T02:49:55.242Z,25.40
2023-05-23T02:52:24.038Z,23.88
2023-05-23T02:54:52.969Z,24.65
2023-05-23T02:57:21.502Z,20.90
2023-05-23T02:59:50.294Z,25.65
2023-05-23T03:02:18.920Z,25.52
2023-05-23T03:04:48.528Z,23.90
2023-05-23T03:07:27.627Z,27.27
2023-05-23T03:09:57.494Z,22.50
2023-05-23T03:12:26.161Z,23.40
2023-05-23T03:14:56.868Z,27.83
2023-05-23T03:17:26.394Z,20.52
2023-05-23T03:19:55.497Z,21.42
2023-05-23T03:22:23.945Z,18.38
2023-05-23T03:24:53.036Z,21.23
2023-05-23T03:27:21.550Z,21.33
2023-05-23T03:29:50.696Z,24.27
2023-05-23T03:32:19.252Z,17.08
2023-05-23T03:34:48.117Z,20.00
2023-05-23T03:37:16.644Z,20.23
2023-05-23T03:39:46.536Z,16.35
2023-05-23T03:42:14.978Z,19.45
2023-05-23T03:44:43.929Z,19.08
2023-05-23T03:47:13.103Z,19.20
2023-05-23T03:49:45.464Z,19.85
2023-05-23T03:52:14.395Z,14.70
2023-05-23T03:54:43.331Z,20.35
2023-05-23T03:57:11.835Z,15.48
2023-05-23T03:59:40.887Z,17.50
2023-05-23T04:02:12.555Z,16.08
2023-05-23T04:04:41.680Z,16.88
2023-05-23T04:07:11.580Z,12.18
2023-05-23T04:09:43.284Z,16.20
2023-05-23T04:12:13.644Z,14.30
2023-05-23T04:14:42.450Z,14.85
2023-05-23T04:17:12.244Z,17.42
2023-05-23T04:19:41.493Z,14.90
2023-05-23T04:22:10.037Z,20.35
2023-05-23T04:24:39.190Z,12.15
2023-05-23T04:27:08.032Z,16.08
2023-05-23T04:29:36.929Z,12.75
2023-05-23T04:32:06.560Z,14.40
2023-05-23T04:34:35.505Z,13.23
2023-05-23T04:37:04.264Z,12.50
2023-05-23T04:39:33.509Z,13.93
2023-05-23T04:42:42.790Z,14.38
2023-05-23T04:45:23.375Z,12.03
2023-05-23T04:48:02.372Z,13.55
2023-05-23T04:50:40.990Z,10.43
2023-05-23T04:53:09.920Z,11.75
2023-05-23T04:55:39.837Z,9.60
2023-05-23T04:58:14.536Z,12.88
2023-05-23T05:00:44.903Z,10.18
2023-05-23T05:03:16.596Z,13.23
2023-05-23T05:05:47.873Z,11.07
2023-05-23T05:08:20.284Z,12.90
2023-05-23T05:10:49.429Z,11.15
2023-05-23T05:13:20.830Z,15.68
2023-05-23T05:15:55.564Z,11.68
2023-05-23T05:18:27.504Z,14.95
2023-05-23T05:21:00.417Z,13.95
2023-05-23T05:23:29.172Z,15.63
2023-05-23T05:25:59.256Z,13.30
2023-05-23T05:28:27.879Z,13.25
2023-05-23T05:30:57.135Z,18.85
2023-05-23T05:33:25.826Z,16.33
2023-05-23T05:36:12.891Z,18.23
2023-05-23T05:38:42.514Z,19.55
2023-05-23T05:41:11.647Z,13.38
2023-05-23T05:43:49.167Z,15.55
2023-05-23T05:46:18.292Z,18.02
2023-05-23T05:48:47.684Z,16.23
2023-05-23T05:51:19.154Z,14.15
2023-05-23T05:53:49.683Z,17.73
2023-05-23T05:56:19.216Z,19.02
2023-05-23T05:58:47.927Z,25.08
2023-05-23T06:01:18.574Z,20.65
2023-05-23T06:03:47.578Z,31.58
2023-05-23T06:06:17.286Z,21.98
2023-05-23T06:08:46.483Z,23.00
2023-05-23T06:11:18.647Z,12.90
2023-05-23T06:13:47.288Z,24.63
2023-05-23T06:16:16.739Z,16.27
2023-05-23T06:18:46.979Z,21.05
2023-05-23T06:21:16.233Z,15.20
2023-05-23T06:23:45.150Z,21.05
2023-05-23T06:26:14.168Z,19.38
2023-05-23T06:28:43.021Z,15.23
2023-05-23T06:31:12.117Z,18.48
2023-05-23T06:33:40.937Z,20.40
2023-05-23T06:36:09.876Z,16.38
2023-05-23T06:38:38.434Z,21.13
2023-05-23T06:41:08.337Z,15.48
2023-05-23T06:43:38.727Z,11.98
2023-05-23T06:46:39.668Z,27.30
2023-05-23T06:49:14.891Z,19.38
2023-05-23T06:51:47.069Z,24.42
2023-05-23T06:54:16.154Z,19.35
2023-05-23T06:56:46.554Z,19.08
2023-05-23T06:59:15.234Z,16.35
2023-05-23T07:01:44.270Z,13.10
2023-05-23T07:04:14.080Z,13.80
2023-05-23T07:06:43.817Z,13.80
2023-05-23T07:09:13.571Z,15.98
2023-05-23T07:11:43.712Z,21.67
2023-05-23T07:14:15.761Z,19.88
2023-05-23T07:16:47.776Z,19.23
2023-05-23T07:19:16.705Z,16.98
2023-05-23T07:21:52.154Z,19.83
2023-05-23T07:24:23.344Z,17.52
2023-05-23T07:26:54.225Z,14.80
2023-05-23T07:29:23.237Z,17.65
2023-05-23T07:31:54.835Z,15.15
2023-05-23T07:34:24.858Z,16.48
2023-05-23T07:36:59.218Z,25.05
2023-05-23T07:39:33.044Z,16.48
2023-05-23T07:42:04.026Z,17.73
2023-05-23T07:44:32.748Z,16.38
2023-05-23T07:47:02.190Z,20.77
2023-05-23T07:49:31.043Z,18.83
2023-05-23T07:52:00.931Z,19.90
2023-05-23T07:54:29.700Z,20.17
2023-05-23T07:57:01.913Z,22.00
2023-05-23T07:59:30.787Z,33.40
2023-05-23T08:02:00.576Z,20.42
2023-05-23T08:04:30.390Z,25.73
2023-05-23T08:07:05.413Z,26.00
2023-05-23T08:09:45.225Z,31.98
2023-05-23T08:12:17.899Z,32.42
2023-05-23T08:14:51.328Z,26.10
2023-05-23T08:17:28.332Z,34.15
2023-05-23T08:19:57.338Z,27.00
2023-05-23T08:22:26.486Z,33.22
2023-05-23T08:24:55.839Z,28.55
2023-05-23T08:27:25.099Z,36.03
2023-05-23T08:29:58.385Z,38.50
2023-05-23T08:32:27.380Z,38.92
2023-05-23T08:34:56.431Z,39.28
2023-05-23T08:37:25.397Z,38.90
2023-05-23T08:39:54.021Z,32.45
2023-05-23T08:42:49.224Z,33.63
2023-05-23T08:45:18.319Z,34.78
2023-05-23T08:47:47.985Z,35.85
2023-05-23T08:50:21.842Z,35.15
2023-05-23T08:53:00.421Z,30.92
2023-05-23T08:55:30.770Z,33.20
2023-05-23T08:58:03.883Z,28.90
2023-05-23T09:00:48.099Z,29.67
2023-05-23T09:03:17.115Z,32.33
2023-05-23T09:06:09.895Z,32.00
2023-05-23T09:08:40.348Z,30.67
2023-05-23T09:11:13.248Z,40.15
2023-05-23T09:16:18.270Z,35.67
2023-05-23T09:18:51.795Z,35.05
2023-05-23T09:21:24.107Z,37.28
2023-05-23T09:24:15.726Z,32.42
2023-05-23T09:26:48.585Z,33.38
2023-05-23T09:29:21.837Z,33.55
2023-05-23T09:31:50.609Z,34.40
2023-05-23T09:34:19.778Z,28.73
2023-05-23T09:36:48.759Z,31.40
2023-05-23T09:39:17.840Z,36.17
2023-05-23T09:41:49.661Z,27.70
2023-05-23T09:44:23.468Z,27.30
2023-05-23T09:46:55.012Z,23.38
2023-05-23T09:49:24.049Z,28.93
2023-05-23T09:52:00.256Z,24.65
2023-05-23T09:54:29.286Z,20.40
2023-05-23T09:56:57.890Z,21.95
2023-05-23T09:59:28.990Z,18.45
2023-05-23T10:01:58.498Z,20.65
2023-05-23T10:04:32.767Z,24.90
2023-05-23T10:07:27.735Z,19.50
2023-05-23T10:10:01.588Z,20.95
2023-05-23T10:12:33.221Z,15.85
2023-05-23T10:15:07.191Z,18.10
2023-05-23T10:17:59.968Z,14.93
2023-05-23T10:20:34.614Z,15.57
2023-05-23T10:23:05.576Z,14.68
2023-05-23T10:25:37.434Z,16.95
2023-05-23T10:28:06.159Z,17.60
2023-05-23T10:30:35.098Z,17.10
2023-05-23T10:33:03.825Z,19.52
2023-05-23T10:36:09.510Z,13.68
2023-05-23T10:39:21.281Z,11.98
2023-05-23T10:41:54.253Z,12.18
2023-05-23T10:44:29.752Z,14.77
2023-05-23T10:47:03.293Z,13.27
2023-05-23T10:49:47.840Z,12.77
2023-05-23T10:52:20.005Z,9.80
2023-05-23T10:54:53.746Z,13.00
2023-05-23T10:57:27.986Z,11.32
2023-05-23T10:59:56.592Z,14.18
2023-05-23T11:02:29.581Z,11.90
2023-05-23T11:05:34.511Z,10.68
2023-05-23T11:08:18.030Z,14.10
2023-05-23T11:13:53.269Z,8.95
2023-05-23T11:16:43.355Z,14.38
2023-05-23T11:19:21.299Z,11.93
2023-05-23T11:22:02.342Z,13.65
2023-05-23T11:24:53.773Z,14.10
2023-05-23T11:27:29.564Z,13.45
2023-05-23T11:30:00.795Z,13.77
2023-05-23T11:32:31.662Z,10.05
2023-05-23T11:35:12.478Z,9.98
2023-05-23T11:37:41.355Z,11.50
2023-05-23T11:40:33.265Z,15.27
2023-05-23T11:43:10.290Z,14.38
2023-05-23T11:45:40.211Z,9.48
2023-05-23T11:48:13.347Z,10.32
2023-05-23T11:50:47.916Z,12.88
2023-05-23T11:53:18.866Z,12.75
2023-05-23T11:55:58.730Z,9.32
2023-05-23T11:58:33.393Z,10.65
2023-05-23T12:01:07.151Z,14.13
2023-05-23T12:03:38.393Z,8.93
2023-05-23T12:06:07.363Z,11.48
2023-05-23T12:08:36.219Z,8.75
2023-05-23T12:11:05.001Z,8.93
2023-05-23T12:13:33.422Z,7.93
2023-05-23T12:16:02.984Z,9.30
2023-05-23T12:18:32.926Z,12.05
2023-05-23T12:21:08.944Z,10.20
2023-05-23T12:23:37.760Z,6.97
2023-05-23T12:26:07.595Z,11.30
2023-05-23T12:28:43.420Z,9.20
2023-05-23T12:31:21.801Z,14.73
2023-05-23T12:33:53.055Z,6.90
2023-05-23T12:36:26.732Z,10.35
2023-05-23T12:38:55.956Z,8.90
2023-05-23T12:41:24.678Z,13.88
2023-05-23T12:43:54.859Z,21.02
2023-05-23T12:46:25.310Z,17.92
2023-05-23T12:48:54.471Z,19.40
2023-05-23T12:51:26.195Z,17.60
2023-05-23T12:53:55.067Z,22.90
2023-05-23T12:56:23.859Z,20.70
2023-05-23T12:58:54.053Z,18.20
2023-05-23T13:01:22.951Z,18.52
2023-05-23T13:03:51.673Z,17.80
2023-05-23T13:06:20.617Z,15.80
2023-05-23T13:08:51.313Z,21.75
2023-05-23T13:11:20.634Z,18.33
2023-05-23T13:13:50.245Z,19.08
2023-05-23T13:16:19.390Z,16.33
2023-05-23T13:18:47.949Z,22.08
2023-05-23T13:21:16.777Z,19.13
2023-05-23T13:23:45.318Z,15.38
2023-05-23T13:26:14.864Z,16.10
2023-05-23T13:28:43.451Z,17.73
2023-05-23T13:31:12.418Z,19.42
2023-05-23T13:33:42.404Z,14.85
2023-05-23T13:36:11.300Z,17.15
2023-05-23T13:38:39.700Z,15.57
2023-05-23T13:41:08.436Z,12.98
2023-05-23T13:43:36.890Z,14.43
2023-05-23T13:46:05.785Z,15.35
2023-05-23T13:48:34.381Z,14.75
2023-05-23T13:51:04.357Z,15.32
2023-05-23T13:53:32.947Z,20.25
2023-05-23T13:56:02.114Z,15.98
2023-05-23T13:58:32.700Z,12.38
2023-05-23T14:01:02.876Z,14.55
2023-05-23T14:03:31.681Z,19.17
2023-05-23T14:06:00.469Z,10.60
2023-05-23T14:08:28.821Z,17.10
2023-05-23T14:10:57.910Z,12.23
2023-05-23T14:13:26.672Z,13.63
2023-05-23T14:15:55.949Z,15.55
2023-05-23T14:18:24.582Z,13.43
2023-05-23T14:20:53.499Z,10.15
2023-05-23T14:23:22.132Z,12.95
2023-05-23T14:25:51.058Z,13.38
2023-05-23T14:28:19.648Z,9.90
2023-05-23T14:30:48.637Z,14.18
2023-05-23T14:33:17.057Z,8.18
2023-05-23T14:35:45.977Z,9.50
2023-05-23T14:38:14.357Z,13.73
2023-05-23T14:40:43.961Z,10.57
2023-05-23T14:43:13.138Z,18.27
2023-05-23T14:45:42.741Z,8.18
2023-05-23T14:48:11.829Z,8.65
2023-05-23T14:50:41.043Z,9.65
2023-05-23T14:53:09.609Z,8.27
2023-05-23T14:55:38.594Z,7.10
2023-05-23T14:58:07.387Z,10.25
2023-05-23T15:00:36.285Z,7.70
2023-05-23T15:03:05.325Z,9.50
2023-05-23T15:05:34.350Z,10.35
2023-05-23T15:08:04.046Z,9.00
2023-05-23T15:10:32.926Z,8.73
2023-05-23T15:13:03.555Z,6.85
2023-05-23T15:15:37.721Z,8.07
2023-05-23T15:18:09.882Z,8.65
2023-05-23T15:20:38.958Z,10.75
2023-05-23T15:23:07.596Z,9.43
2023-05-23T15:25:48.865Z,8.10
2023-05-23T15:28:18.362Z,10.10
2023-05-23T15:30:47.590Z,7.68
2023-05-23T15:33:16.307Z,8.32
2023-05-23T15:35:45.271Z,9.80
2023-05-23T15:38:15.097Z,10.32
2023-05-23T15:40:44.925Z,13.93
2023-05-23T15:43:13.567Z,9.07
2023-05-23T15:45:42.592Z,7.75
2023-05-23T15:48:11.497Z,8.65
2023-05-23T15:50:41.154Z,10.60
2023-05-23T15:53:10.058Z,10.18
2023-05-23T15:55:41.849Z,7.82
2023-05-23T15:58:11.523Z,11.27
2023-05-23T16:00:40.762Z,10.75
2023-05-23T16:03:09.710Z,10.82
2023-05-23T16:05:39.301Z,9.10
2023-05-23T16:08:08.185Z,10.10
2023-05-23T16:10:37.230Z,7.72
2023-05-23T16:13:06.063Z,11.00
2023-05-23T16:15:35.572Z,9.05
2023-05-23T16:18:04.472Z,8.07
2023-05-23T16:20:35.417Z,7.20
2023-05-23T16:23:04.182Z,11.02
2023-05-23T16:25:33.365Z,7.07
2023-05-23T16:28:02.036Z,8.05
2023-05-23T16:30:31.660Z,8.32
2023-05-23T16:33:00.399Z,8.15
2023-05-23T16:35:29.378Z,11.93
2023-05-23T16:37:57.924Z,11.98
2023-05-23T16:40:26.958Z,10.52
2023-05-23T16:42:55.647Z,9.05
2023-05-23T16:45:25.563Z,9.07
2023-05-23T16:47:54.279Z,7.72
2023-05-23T16:50:23.938Z,7.25
2023-05-23T16:52:53.209Z,8.55
2023-05-23T16:55:22.687Z,10.35
2023-05-23T16:57:51.907Z,10.25
2023-05-23T17:00:21.716Z,10.27
2023-05-23T17:02:50.603Z,12.88
2023-05-23T17:05:19.982Z,14.88
2023-05-23T17:07:48.484Z,12.02
2023-05-23T17:10:20.081Z,10.65
2023-05-23T17:12:49.130Z,9.80
2023-05-23T17:15:18.036Z,9.25
2023-05-23T17:17:47.402Z,11.55
2023-05-23T17:20:16.684Z,11.13
2023-05-23T17:22:46.640Z,13.77
2023-05-23T17:25:15.754Z,12.18
2023-05-23T17:27:44.476Z,11.35
2023-05-23T17:30:19.957Z,12.82
2023-05-23T17:32:49.071Z,13.07
2023-05-23T17:35:18.262Z,13.00
2023-05-23T17:37:47.474Z,12.93
2023-05-23T17:40:16.700Z,11.80
2023-05-23T17:42:45.827Z,9.30
2023-05-23T17:45:16.386Z,9.43
2023-05-23T17:47:45.302Z,8.43
2023-05-23T17:50:14.519Z,14.07
2023-05-23T17:52:43.335Z,6.68
2023-05-23T17:55:12.665Z,6.55
2023-05-23T17:57:41.515Z,10.68
2023-05-23T18:00:12.213Z,9.57
2023-05-23T18:02:43.875Z,8.00
2023-05-23T18:05:14.248Z,11.45
2023-05-23T18:07:43.277Z,9.98
2023-05-23T18:10:12.662Z,10.73
2023-05-23T18:12:41.501Z,11.20
2023-05-23T18:15:12.201Z,16.20
2023-05-23T18:17:41.039Z,11.15
2023-05-23T18:20:11.576Z,12.38
2023-05-23T18:22:41.627Z,14.27
2023-05-23T18:25:11.154Z,13.77
2023-05-23T18:28:05.236Z,13.95
2023-05-23T18:30:35.421Z,12.50
2023-05-23T18:33:04.759Z,12.57
2023-05-23T18:35:34.201Z,13.70
2023-05-23T18:38:03.010Z,10.30
2023-05-23T18:40:32.798Z,10.20
2023-05-23T18:43:01.887Z,12.93
2023-05-23T18:45:31.366Z,12.73
2023-05-23T18:48:00.147Z,13.38
2023-05-23T18:50:30.025Z,25.33
2023-05-23T18:52:58.700Z,18.60
2023-05-23T18:55:28.317Z,16.25
2023-05-23T18:57:59.209Z,13.77
2023-05-23T19:00:28.869Z,12.57
2023-05-23T19:02:57.734Z,19.27
2023-05-23T19:05:27.444Z,13.63
2023-05-23T19:07:56.240Z,16.88
2023-05-23T19:10:25.787Z,25.38
2023-05-23T20:08:06.894Z,43.63
2023-05-23T20:10:36.221Z,49.38
2023-05-23T20:13:04.860Z,37.95
2023-05-23T20:15:39.850Z,25.90
2023-05-23T20:18:10.121Z,24.67
2023-05-23T20:20:39.625Z,23.65
2023-05-23T20:23:08.370Z,19.55
2023-05-23T20:25:38.504Z,24.30
2023-05-23T20:28:07.726Z,17.55
2023-05-23T20:30:37.107Z,22.00
2023-05-23T20:33:05.776Z,18.38
2023-05-23T20:35:34.569Z,14.80
2023-05-23T20:38:03.103Z,20.63
2023-05-23T20:40:34.005Z,16.75
2023-05-23T20:43:05.309Z,17.95
2023-05-23T20:45:34.242Z,20.05
2023-05-23T20:48:02.853Z,15.82
2023-05-23T20:50:32.594Z,15.65
2023-05-23T20:53:02.587Z,14.40
2023-05-23T20:55:35.507Z,18.35
2023-05-23T20:58:03.831Z,14.82
2023-05-23T21:00:32.850Z,18.05
2023-05-23T21:03:03.151Z,16.45
2023-05-23T21:05:32.010Z,16.92
2023-05-23T21:08:00.547Z,13.93
2023-05-23T21:10:29.364Z,14.57
2023-05-23T21:12:58.491Z,17.48
2023-05-23T21:15:27.542Z,15.25
2023-05-23T21:17:56.231Z,23.17
2023-05-23T21:20:25.108Z,15.13
2023-05-23T21:22:53.674Z,16.30
2023-05-23T21:25:22.572Z,16.45
2023-05-23T21:27:51.232Z,18.38
2023-05-23T21:30:20.323Z,13.20
2023-05-23T21:32:49.284Z,13.38
2023-05-23T21:35:18.315Z,13.18
2023-05-23T21:37:46.903Z,14.32
2023-05-23T21:40:16.055Z,13.80
2023-05-23T21:42:44.558Z,12.63
2023-05-23T21:45:13.405Z,10.88
2023-05-23T21:47:41.917Z,15.48
2023-05-23T21:50:11.588Z,16.50
2023-05-23T21:52:40.072Z,15.40
2023-05-23T21:55:09.032Z,16.52
2023-05-23T21:57:37.591Z,16.30
2023-05-23T22:00:12.925Z,19.10
2023-05-23T22:02:41.811Z,14.85
2023-05-23T22:05:11.900Z,12.80
2023-05-23T22:07:40.570Z,20.75
2023-05-23T22:10:10.276Z,18.92
2023-05-23T22:12:39.100Z,13.02
2023-05-23T22:15:09.077Z,10.80
2023-05-23T22:17:37.624Z,13.57
2023-05-23T22:20:07.126Z,13.35
2023-05-23T22:22:36.595Z,15.73
2023-05-23T22:25:07.401Z,12.77
2023-05-23T22:27:36.108Z,11.80
2023-05-23T22:30:06.131Z,18.10
2023-05-23T22:32:34.725Z,12.68
2023-05-23T22:35:03.616Z,11.07
2023-05-23T22:37:32.028Z,10.00
2023-05-23T22:40:01.380Z,12.13
2023-05-23T22:42:29.946Z,14.30
2023-05-23T22:44:58.888Z,11.27
2023-05-23T22:47:29.706Z,10.70
2023-05-23T22:50:00.070Z,8.38
2023-05-23T22:52:28.788Z,10.05
2023-05-23T22:54:57.581Z,9.80
2023-05-23T22:57:26.237Z,8.82
2023-05-23T22:59:55.220Z,11.25
2023-05-23T23:02:23.736Z,10.52
2023-05-23T23:04:52.638Z,10.60
2023-05-23T23:07:21.069Z,12.85
2023-05-23T23:09:50.304Z,11.00
2023-05-23T23:12:18.814Z,12.95
2023-05-23T23:14:47.817Z,12.43
2023-05-23T23:17:16.725Z,14.48
2023-05-23T23:19:47.221Z,13.75
2023-05-23T23:22:16.929Z,9.27
2023-05-23T23:24:47.940Z,9.73
2023-05-23T23:27:16.827Z,10.65
2023-05-23T23:29:46.421Z,9.73
2023-05-23T23:32:14.880Z,12.65
2023-05-23T23:34:43.888Z,9.85
2023-05-23T23:37:12.414Z,11.98
2023-05-23T23:39:41.254Z,9.88
2023-05-23T23:42:09.711Z,10.48
2023-05-23T23:44:39.069Z,15.73
2023-05-23T23:47:07.648Z,10.43
2023-05-23T23:49:36.538Z,12.02
2023-05-23T23:52:05.389Z,13.68
2023-05-23T23:54:34.190Z,13.82
2023-05-23T23:57:02.752Z,15.80
2023-05-23T23:59:31.557Z,13.48
